sensor_id;sensor_type;location;lat;lon;timestamp;pressure;altitude;pressure_sealevel;temperature;humidity
54308;BME280;40208;39.778;2.710;2024-02-23T00:02:22;100256.03;;;17.12;100.00
54308;BME280;40208;39.778;2.710;2024-02-23T00:05:07;99971.56;;;15.40;100.00
54308;BME280;40208;39.778;2.710;2024-02-23T00:07:52;100166.38;;;16.15;100.00
54308;BME280;40208;39.778;2.710;2024-02-23T00:10:37;100015.06;;;15.31;100.00
54308;BME280;40208;39.778;2.710;2024-02-23T00:13:22;100313.44;;;17.21;100.00
54308;BME280;40208;39.778;2.710;2024-02-23T00:16:07;100003.50;;;15.30;100.00
54308;BME280;40208;39.778;2.710;2024-02-23T00:18:52;100285.28;;;16.70;100.00
54308;BME280;40208;39.778;2.710;2024-02-23T00:21:37;99926.03;;;14.83;100.00
54308;BME280;40208;39.778;2.710;2024-02-23T00:24:30;100060.31;;;15.56;100.00
54308;BME280;40208;39.778;2.710;2024-02-23T00:27:15;100333.06;;;16.99;100.00
54308;BME280;40208;39.778;2.710;2024-02-23T00:30:00;100089.09;;;15.77;100.00
54308;BME280;40208;39.778;2.710;2024-02-23T00:32:45;100357.69;;;17.04;100.00
54308;BME280;40208;39.778;2.710;2024-02-23T00:35:29;100267.00;;;16.75;100.00
54308;BME280;40208;39.778;2.710;2024-02-23T00:38:14;100176.13;;;16.16;100.00
54308;BME280;40208;39.778;2.710;2024-02-23T00:40:59;100333.06;;;16.99;100.00
54308;BME280;40208;39.778;2.710;2024-02-23T00:43:44;100200.81;;;16.20;100.00
54308;BME280;40208;39.778;2.710;2024-02-23T00:46:29;100183.41;;;16.03;100.00
54308;BME280;40208;39.778;2.710;2024-02-23T00:49:14;100027.19;;;15.12;100.00
54308;BME280;40208;39.778;2.710;2024-02-23T00:51:59;100226.53;;;16.33;100.00
54308;BME280;40208;39.778;2.710;2024-02-23T00:54:44;100036.00;;;15.01;100.00
54308;BME280;40208;39.778;2.710;2024-02-23T00:57:29;99863.13;;;14.09;100.00
54308;BME280;40208;39.778;2.710;2024-02-23T01:00:15;100005.66;;;15.14;100.00
54308;BME280;40208;39.778;2.710;2024-02-23T01:02:59;99756.31;;;13.86;100.00
54308;BME280;40208;39.778;2.710;2024-02-23T01:05:45;100111.72;;;15.84;100.00
54308;BME280;40208;39.778;2.710;2024-02-23T01:08:30;100322.47;;;16.98;100.00
54308;BME280;40208;39.778;2.710;2024-02-23T01:11:16;100047.31;;;15.52;100.00
54308;BME280;40208;39.778;2.710;2024-02-23T01:14:00;100141.53;;;15.90;100.00
54308;BME280;40208;39.778;2.710;2024-02-23T01:16:45;99980.78;;;15.24;100.00
54308;BME280;40208;39.778;2.710;2024-02-23T01:19:30;100070.31;;;15.54;100.00
54308;BME280;40208;39.778;2.710;2024-02-23T01:22:15;99824.91;;;14.08;100.00
54308;BME280;40208;39.778;2.710;2024-02-23T01:25:00;99802.13;;;13.80;100.00
54308;BME280;40208;39.778;2.710;2024-02-23T01:27:45;99815.47;;;14.15;100.00
54308;BME280;40208;39.778;2.710;2024-02-23T01:30:30;99863.31;;;14.30;100.00
54308;BME280;40208;39.778;2.710;2024-02-23T01:33:15;100157.59;;;15.90;100.00
54308;BME280;40208;39.778;2.710;2024-02-23T01:36:04;99824.59;;;13.89;100.00
54308;BME280;40208;39.778;2.710;2024-02-23T01:38:49;100294.63;;;16.76;100.00
54308;BME280;40208;39.778;2.710;2024-02-23T01:41:34;99904.03;;;14.45;100.00
54308;BME280;40208;39.778;2.710;2024-02-23T01:44:19;100310.03;;;16.97;100.00
54308;BME280;40208;39.778;2.710;2024-02-23T01:47:06;99839.94;;;14.09;100.00
54308;BME280;40208;39.778;2.710;2024-02-23T01:49:51;100018.56;;;15.20;100.00
54308;BME280;40208;39.778;2.710;2024-02-23T01:52:37;100165.25;;;15.84;100.00
54308;BME280;40208;39.778;2.710;2024-02-23T01:55:25;100158.44;;;15.91;100.00
54308;BME280;40208;39.778;2.710;2024-02-23T01:58:11;99907.28;;;14.13;100.00
54308;BME280;40208;39.778;2.710;2024-02-23T02:00:57;100184.84;;;15.96;100.00
54308;BME280;40208;39.778;2.710;2024-02-23T02:03:42;100088.00;;;15.09;100.00
54308;BME280;40208;39.778;2.710;2024-02-23T02:06:27;100334.44;;;16.58;100.00
54308;BME280;40208;39.778;2.710;2024-02-23T02:09:12;99848.00;;;13.48;100.00
54308;BME280;40208;39.778;2.710;2024-02-23T02:11:57;100135.34;;;15.19;100.00
54308;BME280;40208;39.778;2.710;2024-02-23T02:14:44;99862.41;;;13.33;100.00
54308;BME280;40208;39.778;2.710;2024-02-23T02:17:30;99919.81;;;13.99;100.00
54308;BME280;40208;39.778;2.710;2024-02-23T02:20:18;100118.38;;;15.32;100.00
54308;BME280;40208;39.778;2.710;2024-02-23T02:23:08;100163.22;;;15.39;100.00
54308;BME280;40208;39.778;2.710;2024-02-23T02:25:57;99851.28;;;13.52;100.00
54308;BME280;40208;39.778;2.710;2024-02-23T02:28:42;99820.53;;;13.59;100.00
54308;BME280;40208;39.778;2.710;2024-02-23T02:31:27;100189.44;;;15.58;100.00
54308;BME280;40208;39.778;2.710;2024-02-23T02:34:12;99846.84;;;13.40;100.00
54308;BME280;40208;39.778;2.710;2024-02-23T02:37:00;100244.78;;;15.34;100.00
54308;BME280;40208;39.778;2.710;2024-02-23T02:39:45;100110.97;;;14.63;100.00
54308;BME280;40208;39.778;2.710;2024-02-23T02:42:30;99864.00;;;13.23;100.00
54308;BME280;40208;39.778;2.710;2024-02-23T02:45:15;99880.94;;;13.47;100.00
54308;BME280;40208;39.778;2.710;2024-02-23T02:48:02;100327.19;;;16.01;100.00
54308;BME280;40208;39.778;2.710;2024-02-23T02:50:47;100132.03;;;14.92;100.00
54308;BME280;40208;39.778;2.710;2024-02-23T02:53:34;99791.50;;;12.68;100.00
54308;BME280;40208;39.778;2.710;2024-02-23T02:56:19;100055.41;;;14.31;100.00
54308;BME280;40208;39.778;2.710;2024-02-23T02:59:04;99811.47;;;13.25;100.00
54308;BME280;40208;39.778;2.710;2024-02-23T03:01:48;99997.97;;;14.50;100.00
54308;BME280;40208;39.778;2.710;2024-02-23T03:04:34;100012.41;;;14.47;100.00
54308;BME280;40208;39.778;2.710;2024-02-23T03:07:19;99783.38;;;12.95;100.00
54308;BME280;40208;39.778;2.710;2024-02-23T03:10:04;99985.66;;;14.12;100.00
54308;BME280;40208;39.778;2.710;2024-02-23T03:12:49;99793.69;;;13.12;100.00
54308;BME280;40208;39.778;2.710;2024-02-23T03:15:35;100090.69;;;15.09;100.00
54308;BME280;40208;39.778;2.710;2024-02-23T03:18:20;99990.25;;;14.34;100.00
54308;BME280;40208;39.778;2.710;2024-02-23T03:21:05;100058.31;;;14.65;100.00
54308;BME280;40208;39.778;2.710;2024-02-23T03:23:51;100114.56;;;14.75;100.00
54308;BME280;40208;39.778;2.710;2024-02-23T03:26:36;99705.50;;;12.16;100.00
54308;BME280;40208;39.778;2.710;2024-02-23T03:29:21;99827.78;;;13.07;100.00
54308;BME280;40208;39.778;2.710;2024-02-23T03:32:08;100241.81;;;15.50;100.00
54308;BME280;40208;39.778;2.710;2024-02-23T03:34:53;100251.94;;;15.57;100.00
54308;BME280;40208;39.778;2.710;2024-02-23T03:37:38;99829.09;;;12.89;100.00
54308;BME280;40208;39.778;2.710;2024-02-23T03:40:23;99806.00;;;12.77;100.00
54308;BME280;40208;39.778;2.710;2024-02-23T03:43:08;100186.00;;;15.21;100.00
54308;BME280;40208;39.778;2.710;2024-02-23T03:45:53;99766.78;;;12.79;100.00
54308;BME280;40208;39.778;2.710;2024-02-23T03:48:38;100052.34;;;14.49;100.00
54308;BME280;40208;39.778;2.710;2024-02-23T03:51:23;100112.41;;;15.04;100.00
54308;BME280;40208;39.778;2.710;2024-02-23T03:54:08;100003.25;;;14.14;100.00
54308;BME280;40208;39.778;2.710;2024-02-23T03:56:56;99795.22;;;12.52;100.00
54308;BME280;40208;39.778;2.710;2024-02-23T03:59:31;100052.97;;;14.15;100.00
54308;BME280;40208;39.778;2.710;2024-02-23T04:02:15;100299.13;;;15.58;100.00
54308;BME280;40208;39.778;2.710;2024-02-23T04:05:00;99887.34;;;12.81;100.00
54308;BME280;40208;39.778;2.710;2024-02-23T04:07:45;100134.41;;;14.34;100.00
54308;BME280;40208;39.778;2.710;2024-02-23T04:10:30;100183.41;;;14.71;100.00
54308;BME280;40208;39.778;2.710;2024-02-23T04:13:15;100149.88;;;14.54;100.00
54308;BME280;40208;39.778;2.710;2024-02-23T04:16:00;100286.25;;;15.39;100.00
54308;BME280;40208;39.778;2.710;2024-02-23T04:18:45;99980.63;;;13.45;100.00
54308;BME280;40208;39.778;2.710;2024-02-23T04:21:30;100165.03;;;14.28;100.00
54308;BME280;40208;39.778;2.710;2024-02-23T04:24:15;99831.66;;;12.12;100.00
54308;BME280;40208;39.778;2.710;2024-02-23T04:27:00;100217.16;;;14.34;100.00
54308;BME280;40208;39.778;2.710;2024-02-23T04:29:45;100061.78;;;13.66;100.00
54308;BME280;40208;39.778;2.710;2024-02-23T04:32:30;100126.53;;;13.55;100.00
54308;BME280;40208;39.778;2.710;2024-02-23T04:35:15;100079.19;;;13.72;100.00
54308;BME280;40208;39.778;2.710;2024-02-23T04:37:59;100220.56;;;14.49;100.00
54308;BME280;40208;39.778;2.710;2024-02-23T04:40:44;100095.06;;;13.86;100.00
54308;BME280;40208;39.778;2.710;2024-02-23T04:43:30;99916.59;;;12.55;100.00
54308;BME280;40208;39.778;2.710;2024-02-23T04:46:15;100082.25;;;13.66;100.00
54308;BME280;40208;39.778;2.710;2024-02-23T04:49:00;100143.72;;;14.03;100.00
54308;BME280;40208;39.778;2.710;2024-02-23T04:51:45;100271.19;;;14.89;100.00
54308;BME280;40208;39.778;2.710;2024-02-23T04:54:30;100165.69;;;14.06;100.00
54308;BME280;40208;39.778;2.710;2024-02-23T04:57:14;100294.13;;;15.04;100.00
54308;BME280;40208;39.778;2.710;2024-02-23T04:59:59;100286.56;;;14.98;100.00
54308;BME280;40208;39.778;2.710;2024-02-23T05:02:45;100112.34;;;13.68;100.00
54308;BME280;40208;39.778;2.710;2024-02-23T05:05:31;100293.41;;;15.02;100.00
54308;BME280;40208;39.778;2.710;2024-02-23T05:08:16;100061.88;;;13.39;100.00
54308;BME280;40208;39.778;2.710;2024-02-23T05:11:01;100177.41;;;13.78;100.00
54308;BME280;40208;39.778;2.710;2024-02-23T05:13:46;100253.31;;;13.99;100.00
54308;BME280;40208;39.778;2.710;2024-02-23T05:16:31;100150.81;;;13.51;100.00
54308;BME280;40208;39.778;2.710;2024-02-23T05:19:16;100308.16;;;15.08;100.00
54308;BME280;40208;39.778;2.710;2024-02-23T05:22:01;100294.81;;;14.82;100.00
54308;BME280;40208;39.778;2.710;2024-02-23T05:24:46;100314.28;;;14.84;100.00
54308;BME280;40208;39.778;2.710;2024-02-23T05:27:31;100291.91;;;14.34;100.00
54308;BME280;40208;39.778;2.710;2024-02-23T05:30:16;100400.94;;;14.67;100.00
54308;BME280;40208;39.778;2.710;2024-02-23T05:33:01;100258.00;;;13.56;100.00
54308;BME280;40208;39.778;2.710;2024-02-23T05:35:47;100361.22;;;13.95;100.00
54308;BME280;40208;39.778;2.710;2024-02-23T05:38:36;100385.28;;;13.81;100.00
54308;BME280;40208;39.778;2.710;2024-02-23T05:41:21;100255.69;;;12.96;100.00
54308;BME280;40208;39.778;2.710;2024-02-23T05:44:06;100421.00;;;13.64;100.00
54308;BME280;40208;39.778;2.710;2024-02-23T05:46:52;100410.66;;;13.60;100.00
54308;BME280;40208;39.778;2.710;2024-02-23T05:49:37;100422.06;;;13.62;100.00
54308;BME280;40208;39.778;2.710;2024-02-23T05:52:21;100399.34;;;13.42;100.00
54308;BME280;40208;39.778;2.710;2024-02-23T05:55:07;100272.97;;;12.60;100.00
54308;BME280;40208;39.778;2.710;2024-02-23T05:57:52;100315.69;;;12.72;100.00
54308;BME280;40208;39.778;2.710;2024-02-23T06:00:37;100306.75;;;12.73;100.00
54308;BME280;40208;39.778;2.710;2024-02-23T06:03:21;100216.41;;;11.83;100.00
54308;BME280;40208;39.778;2.710;2024-02-23T06:06:07;100355.84;;;12.84;100.00
54308;BME280;40208;39.778;2.710;2024-02-23T06:08:52;100405.69;;;13.10;100.00
54308;BME280;40208;39.778;2.710;2024-02-23T06:11:37;100243.00;;;12.13;100.00
54308;BME280;40208;39.778;2.710;2024-02-23T06:14:22;100220.78;;;11.84;100.00
54308;BME280;40208;39.778;2.710;2024-02-23T06:17:07;100425.81;;;12.86;100.00
54308;BME280;40208;39.778;2.710;2024-02-23T06:19:53;100438.44;;;12.98;100.00
54308;BME280;40208;39.778;2.710;2024-02-23T06:22:37;100445.09;;;13.05;100.00
54308;BME280;40208;39.778;2.710;2024-02-23T06:25:22;100410.22;;;12.65;100.00
54308;BME280;40208;39.778;2.710;2024-02-23T06:28:07;100416.06;;;13.15;100.00
54308;BME280;40208;39.778;2.710;2024-02-23T06:30:52;100430.41;;;12.84;100.00
54308;BME280;40208;39.778;2.710;2024-02-23T06:33:37;100475.34;;;13.19;100.00
54308;BME280;40208;39.778;2.710;2024-02-23T06:36:22;100264.31;;;12.27;100.00
54308;BME280;40208;39.778;2.710;2024-02-23T06:39:07;100224.19;;;12.02;100.00
54308;BME280;40208;39.778;2.710;2024-02-23T06:41:52;100269.25;;;12.48;100.00
54308;BME280;40208;39.778;2.710;2024-02-23T06:44:37;100413.53;;;13.28;100.00
54308;BME280;40208;39.778;2.710;2024-02-23T06:47:22;100399.06;;;13.32;100.00
54308;BME280;40208;39.778;2.710;2024-02-23T06:50:07;100259.94;;;12.55;100.00
54308;BME280;40208;39.778;2.710;2024-02-23T06:52:52;100488.91;;;13.73;100.00
54308;BME280;40208;39.778;2.710;2024-02-23T06:55:37;100393.59;;;12.90;100.00
54308;BME280;40208;39.778;2.710;2024-02-23T06:58:22;100345.00;;;12.87;100.00
54308;BME280;40208;39.778;2.710;2024-02-23T07:01:07;100476.72;;;13.40;100.00
54308;BME280;40208;39.778;2.710;2024-02-23T07:03:55;100331.25;;;12.50;100.00
54308;BME280;40208;39.778;2.710;2024-02-23T07:06:40;100516.94;;;13.51;100.00
54308;BME280;40208;39.778;2.710;2024-02-23T07:09:25;100518.00;;;13.19;100.00
54308;BME280;40208;39.778;2.710;2024-02-23T07:12:10;100465.16;;;12.97;100.00
54308;BME280;40208;39.778;2.710;2024-02-23T07:14:58;100378.69;;;12.43;100.00
54308;BME280;40208;39.778;2.710;2024-02-23T07:17:43;100415.28;;;12.24;100.00
54308;BME280;40208;39.778;2.710;2024-02-23T07:20:29;100484.41;;;12.86;100.00
54308;BME280;40208;39.778;2.710;2024-02-23T07:23:14;100431.19;;;12.25;100.00
54308;BME280;40208;39.778;2.710;2024-02-23T07:26:01;100488.41;;;12.79;100.00
54308;BME280;40208;39.778;2.710;2024-02-23T07:28:46;100395.03;;;12.21;100.00
54308;BME280;40208;39.778;2.710;2024-02-23T07:31:30;100314.47;;;11.73;100.00
54308;BME280;40208;39.778;2.710;2024-02-23T07:34:16;100490.09;;;12.65;100.00
54308;BME280;40208;39.778;2.710;2024-02-23T07:37:01;100474.50;;;12.73;100.00
54308;BME280;40208;39.778;2.710;2024-02-23T07:39:47;100467.59;;;12.55;100.00
54308;BME280;40208;39.778;2.710;2024-02-23T07:42:32;100487.47;;;12.80;100.00
54308;BME280;40208;39.778;2.710;2024-02-23T07:45:17;100567.56;;;13.37;100.00
54308;BME280;40208;39.778;2.710;2024-02-23T07:48:03;100209.28;;;11.23;100.00
54308;BME280;40208;39.778;2.710;2024-02-23T07:50:48;100501.03;;;13.05;100.00
54308;BME280;40208;39.778;2.710;2024-02-23T07:53:32;100455.13;;;12.86;100.00
54308;BME280;40208;39.778;2.710;2024-02-23T07:56:17;100299.63;;;12.01;100.00
54308;BME280;40208;39.778;2.710;2024-02-23T07:59:02;100373.06;;;12.48;100.00
54308;BME280;40208;39.778;2.710;2024-02-23T08:01:47;100546.25;;;13.66;100.00
54308;BME280;40208;39.778;2.710;2024-02-23T08:04:32;100411.22;;;13.22;100.00
54308;BME280;40208;39.778;2.710;2024-02-23T08:07:17;100347.66;;;13.01;100.00
54308;BME280;40208;39.778;2.710;2024-02-23T08:10:02;100333.22;;;12.91;100.00
54308;BME280;40208;39.778;2.710;2024-02-23T08:12:49;100608.00;;;14.31;100.00
54308;BME280;40208;39.778;2.710;2024-02-23T08:15:34;100502.53;;;13.83;100.00
54308;BME280;40208;39.778;2.710;2024-02-23T08:18:20;100623.47;;;14.53;100.00
54308;BME280;40208;39.778;2.710;2024-02-23T08:21:06;100620.56;;;14.58;100.00
54308;BME280;40208;39.778;2.710;2024-02-23T08:23:52;100316.47;;;12.89;100.00
54308;BME280;40208;39.778;2.710;2024-02-23T08:26:37;100612.44;;;14.59;100.00
54308;BME280;40208;39.778;2.710;2024-02-23T08:29:23;100280.78;;;12.34;100.00
54308;BME280;40208;39.778;2.710;2024-02-23T08:32:08;100629.88;;;14.51;100.00
54308;BME280;40208;39.778;2.710;2024-02-23T08:34:53;100638.69;;;14.24;100.00
54308;BME280;40208;39.778;2.710;2024-02-23T08:37:44;100427.78;;;12.98;100.00
54308;BME280;40208;39.778;2.710;2024-02-23T08:40:28;100567.69;;;14.07;100.00
54308;BME280;40208;39.778;2.710;2024-02-23T08:43:13;100635.44;;;14.62;100.00
54308;BME280;40208;39.778;2.710;2024-02-23T08:45:58;100653.16;;;14.63;100.00
54308;BME280;40208;39.778;2.710;2024-02-23T08:48:43;100542.00;;;14.33;100.00
54308;BME280;40208;39.778;2.710;2024-02-23T08:51:28;100633.06;;;14.84;100.00
54308;BME280;40208;39.778;2.710;2024-02-23T08:54:13;100643.41;;;15.03;100.00
54308;BME280;40208;39.778;2.710;2024-02-23T08:56:58;100318.34;;;13.15;100.00
54308;BME280;40208;39.778;2.710;2024-02-23T08:59:43;100330.34;;;12.94;100.00
54308;BME280;40208;39.778;2.710;2024-02-23T09:02:28;100344.28;;;13.26;100.00
54308;BME280;40208;39.778;2.710;2024-02-23T09:05:13;100437.66;;;13.82;100.00
54308;BME280;40208;39.778;2.710;2024-02-23T09:07:58;100379.81;;;13.55;100.00
54308;BME280;40208;39.778;2.710;2024-02-23T09:10:43;100646.75;;;15.07;100.00
54308;BME280;40208;39.778;2.710;2024-02-23T09:13:27;100680.69;;;15.19;100.00
54308;BME280;40208;39.778;2.710;2024-02-23T09:16:14;100628.81;;;14.95;99.24
54308;BME280;40208;39.778;2.710;2024-02-23T09:18:59;100400.28;;;13.55;99.82
54308;BME280;40208;39.778;2.710;2024-02-23T09:21:44;100413.72;;;13.53;98.86
54308;BME280;40208;39.778;2.710;2024-02-23T09:24:30;100631.47;;;15.09;98.92
54308;BME280;40208;39.778;2.710;2024-02-23T09:27:15;100392.00;;;13.60;100.00
54308;BME280;40208;39.778;2.710;2024-02-23T09:29:59;100173.28;;;12.37;99.81
54308;BME280;40208;39.778;2.710;2024-02-23T09:32:44;100640.50;;;15.34;100.00
54308;BME280;40208;39.778;2.710;2024-02-23T09:35:29;100389.44;;;14.12;100.00
54308;BME280;40208;39.778;2.710;2024-02-23T09:38:14;100571.84;;;15.34;100.00
54308;BME280;40208;39.778;2.710;2024-02-23T09:40:59;100638.16;;;15.95;99.27
54308;BME280;40208;39.778;2.710;2024-02-23T09:43:46;100627.56;;;15.93;98.77
54308;BME280;40208;39.778;2.710;2024-02-23T09:46:32;100544.91;;;15.50;96.66
54308;BME280;40208;39.778;2.710;2024-02-23T09:49:17;100649.16;;;16.16;96.22
54308;BME280;40208;39.778;2.710;2024-02-23T09:52:02;100365.75;;;14.20;94.40
54308;BME280;40208;39.778;2.710;2024-02-23T09:54:48;100409.19;;;14.50;94.30
54308;BME280;40208;39.778;2.710;2024-02-23T09:57:33;100438.00;;;14.45;96.88
54308;BME280;40208;39.778;2.710;2024-02-23T10:00:18;100443.88;;;14.64;96.14
54308;BME280;40208;39.778;2.710;2024-02-23T10:03:04;100681.28;;;16.03;94.99
54308;BME280;40208;39.778;2.710;2024-02-23T10:05:49;100293.00;;;13.37;93.15
54308;BME280;40208;39.778;2.710;2024-02-23T10:08:34;100441.88;;;14.53;95.43
54308;BME280;40208;39.778;2.710;2024-02-23T10:11:20;100382.47;;;14.37;94.64
54308;BME280;40208;39.778;2.710;2024-02-23T10:14:05;100692.22;;;16.25;89.42
54308;BME280;40208;39.778;2.710;2024-02-23T10:16:50;100373.44;;;14.12;91.73
54308;BME280;40208;39.778;2.710;2024-02-23T10:19:38;100621.84;;;15.85;91.91
54308;BME280;40208;39.778;2.710;2024-02-23T10:22:23;100699.00;;;16.68;91.15
54308;BME280;40208;39.778;2.710;2024-02-23T10:25:09;100713.03;;;16.84;89.07
54308;BME280;40208;39.778;2.710;2024-02-23T10:27:54;100692.38;;;16.61;85.53
54308;BME280;40208;39.778;2.710;2024-02-23T10:30:39;100595.88;;;16.00;85.63
54308;BME280;40208;39.778;2.710;2024-02-23T10:33:25;100709.09;;;16.64;88.43
54308;BME280;40208;39.778;2.710;2024-02-23T10:36:12;100404.13;;;14.85;87.04
54308;BME280;40208;39.778;2.710;2024-02-23T10:39:02;100731.16;;;16.68;85.47
54308;BME280;40208;39.778;2.710;2024-02-23T10:41:57;100727.34;;;16.46;84.81
54308;BME280;40208;39.778;2.710;2024-02-23T10:44:44;100404.47;;;14.00;85.72
54308;BME280;40208;39.778;2.710;2024-02-23T10:47:30;100751.78;;;16.29;84.38
54308;BME280;40208;39.778;2.710;2024-02-23T10:50:16;100748.22;;;16.16;81.53
54308;BME280;40208;39.778;2.710;2024-02-23T10:53:04;100454.03;;;14.45;81.19
54308;BME280;40208;39.778;2.710;2024-02-23T10:55:56;100736.66;;;16.15;82.09
54308;BME280;40208;39.778;2.710;2024-02-23T10:58:44;100519.91;;;14.86;83.58
54308;BME280;40208;39.778;2.710;2024-02-23T11:01:29;100503.94;;;14.71;82.55
54308;BME280;40208;39.778;2.710;2024-02-23T11:04:16;100780.03;;;15.95;83.52
54308;BME280;40208;39.778;2.710;2024-02-23T11:07:01;100749.50;;;16.10;81.99
54308;BME280;40208;39.778;2.710;2024-02-23T11:09:52;100546.34;;;15.03;80.10
54308;BME280;40208;39.778;2.710;2024-02-23T11:12:38;100507.44;;;14.45;80.54
54308;BME280;40208;39.778;2.710;2024-02-23T11:15:27;100745.75;;;16.13;81.39
54308;BME280;40208;39.778;2.710;2024-02-23T11:18:27;100738.19;;;16.06;78.92
54308;BME280;40208;39.778;2.710;2024-02-23T11:21:12;100541.00;;;14.76;78.20
54308;BME280;40208;39.778;2.710;2024-02-23T11:24:02;100690.19;;;15.63;80.08
54308;BME280;40208;39.778;2.710;2024-02-23T11:26:48;100366.59;;;13.40;79.95
54308;BME280;40208;39.778;2.710;2024-02-23T11:29:33;100764.59;;;15.85;80.33
54308;BME280;40208;39.778;2.710;2024-02-23T11:32:19;100360.00;;;13.45;81.92
54308;BME280;40208;39.778;2.710;2024-02-23T11:35:04;100216.88;;;12.91;81.38
54308;BME280;40208;39.778;2.710;2024-02-23T11:37:56;100751.47;;;16.33;82.61
54308;BME280;40208;39.778;2.710;2024-02-23T11:40:45;100764.00;;;16.46;82.55
54308;BME280;40208;39.778;2.710;2024-02-23T11:43:30;100495.84;;;14.86;82.27
54308;BME280;40208;39.778;2.710;2024-02-23T11:46:19;100568.94;;;15.24;81.44
54308;BME280;40208;39.778;2.710;2024-02-23T11:49:04;100740.84;;;16.32;81.29
54308;BME280;40208;39.778;2.710;2024-02-23T11:51:49;100719.22;;;16.35;82.52
54308;BME280;40208;39.778;2.710;2024-02-23T11:54:34;100750.16;;;16.65;82.61
54308;BME280;40208;39.778;2.710;2024-02-23T11:57:19;100494.16;;;15.23;81.23
54308;BME280;40208;39.778;2.710;2024-02-23T12:00:07;100358.06;;;14.56;78.20
54308;BME280;40208;39.778;2.710;2024-02-23T12:02:53;100620.88;;;16.24;79.30
54308;BME280;40208;39.778;2.710;2024-02-23T12:05:38;100732.41;;;17.01;79.84
54308;BME280;40208;39.778;2.710;2024-02-23T12:08:24;100357.34;;;14.79;78.14
54308;BME280;40208;39.778;2.710;2024-02-23T12:11:11;100734.25;;;17.24;78.64
54308;BME280;40208;39.778;2.710;2024-02-23T12:13:58;100459.19;;;15.64;77.73
54308;BME280;40208;39.778;2.710;2024-02-23T12:16:43;100415.38;;;15.29;76.08
54308;BME280;40208;39.778;2.710;2024-02-23T12:19:29;100472.88;;;15.60;76.28
54308;BME280;40208;39.778;2.710;2024-02-23T12:22:14;100522.13;;;15.83;77.47
54308;BME280;40208;39.778;2.710;2024-02-23T12:24:59;100435.34;;;15.61;78.65
54308;BME280;40208;39.778;2.710;2024-02-23T12:27:44;100362.44;;;15.08;78.46
54308;BME280;40208;39.778;2.710;2024-02-23T12:30:30;100743.13;;;17.62;77.10
54308;BME280;40208;39.778;2.710;2024-02-23T12:33:16;100506.44;;;16.02;76.85
54308;BME280;40208;39.778;2.710;2024-02-23T12:36:02;100395.09;;;15.76;76.92
54308;BME280;40208;39.778;2.710;2024-02-23T12:38:47;100433.09;;;16.05;76.01
54308;BME280;40208;39.778;2.710;2024-02-23T12:41:32;100632.66;;;17.44;74.88
54308;BME280;40208;39.778;2.710;2024-02-23T12:44:17;100666.66;;;17.78;75.85
54308;BME280;40208;39.778;2.710;2024-02-23T12:47:05;100689.44;;;17.97;75.51
54308;BME280;40208;39.778;2.710;2024-02-23T12:49:50;100654.63;;;17.95;76.01
54308;BME280;40208;39.778;2.710;2024-02-23T12:52:41;99978.97;;;13.93;75.18
54308;BME280;40208;39.778;2.710;2024-02-23T12:55:37;100391.72;;;16.33;74.15
54308;BME280;40208;39.778;2.710;2024-02-23T12:58:25;100087.81;;;14.51;73.44
54308;BME280;40208;39.778;2.710;2024-02-23T13:01:10;100261.75;;;15.33;74.67
54308;BME280;40208;39.778;2.710;2024-02-23T13:03:56;100360.19;;;16.25;74.90
54308;BME280;40208;39.778;2.710;2024-02-23T13:06:41;100419.59;;;16.66;73.93
54308;BME280;40208;39.778;2.710;2024-02-23T13:09:26;100306.72;;;15.88;74.11
54308;BME280;40208;39.778;2.710;2024-02-23T13:12:37;100662.25;;;18.13;74.13
54308;BME280;40208;39.778;2.710;2024-02-23T13:15:31;100698.75;;;18.15;74.20
54308;BME280;40208;39.778;2.710;2024-02-23T13:18:46;100304.63;;;15.81;73.23
54308;BME280;40208;39.778;2.710;2024-02-23T13:21:31;100063.53;;;14.67;73.91
54308;BME280;40208;39.778;2.710;2024-02-23T13:28:25;100054.47;;;14.80;71.72
54308;BME280;40208;39.778;2.710;2024-02-23T13:31:09;100624.88;;;18.10;70.73
54308;BME280;40208;39.778;2.710;2024-02-23T13:33:55;100620.47;;;18.09;71.40
54308;BME280;40208;39.778;2.710;2024-02-23T13:36:40;100524.75;;;17.51;71.50
54308;BME280;40208;39.778;2.710;2024-02-23T13:39:25;100535.72;;;17.59;71.30
54308;BME280;40208;39.778;2.710;2024-02-23T13:42:10;100617.81;;;18.09;70.68
54308;BME280;40208;39.778;2.710;2024-02-23T13:44:55;100597.75;;;17.90;69.37
54308;BME280;40208;39.778;2.710;2024-02-23T13:47:40;100616.69;;;18.00;69.36
54308;BME280;40208;39.778;2.710;2024-02-23T13:50:25;100626.94;;;17.95;68.54
54308;BME280;40208;39.778;2.710;2024-02-23T13:53:11;100602.28;;;17.90;69.25
54308;BME280;40208;39.778;2.710;2024-02-23T13:55:57;100355.56;;;16.39;68.74
54308;BME280;40208;39.778;2.710;2024-02-23T13:58:41;100623.66;;;18.02;69.79
54308;BME280;40208;39.778;2.710;2024-02-23T14:01:26;100615.81;;;18.22;69.34
54308;BME280;40208;39.778;2.710;2024-02-23T14:04:11;100371.22;;;16.67;69.00
54308;BME280;40208;39.778;2.710;2024-02-23T14:06:56;100616.06;;;18.08;68.33
54308;BME280;40208;39.778;2.710;2024-02-23T14:09:41;100494.22;;;17.41;69.15
54308;BME280;40208;39.778;2.710;2024-02-23T14:12:26;100618.41;;;18.12;68.41
54308;BME280;40208;39.778;2.710;2024-02-23T14:15:11;100342.28;;;16.37;68.28
54308;BME280;40208;39.778;2.710;2024-02-23T14:17:57;100334.63;;;15.97;65.51
54308;BME280;40208;39.778;2.710;2024-02-23T14:20:41;100308.22;;;16.04;67.87
54308;BME280;40208;39.778;2.710;2024-02-23T14:23:27;100608.41;;;17.92;67.39
54308;BME280;40208;39.778;2.710;2024-02-23T14:26:12;100242.69;;;15.74;68.00